Time;durP1;ratioP1;P1;durP2;ratioP2;P2;SDS_P1;SDS_P2;PMS_P1;PMS_P2;Temp;Humidity;BMP_temperature;BMP_pressure;BME280_temperature;BME280_humidity;BME280_pressure;Samples;Min_cycle;Max_cycle;Signal;HPM_P1;HPM_P2
2023/02/09 00:01:04;;;;;;;30.40;14.60;;;;;;;-5.28;100.00;102921.91;4932300;28;20046;-80
2023/02/09 00:03:32;;;;;;;30.00;12.90;;;;;;;-5.25;100.00;102928.19;4957678;28;20118;-80
2023/02/09 00:06:01;;;;;;;29.23;13.20;;;;;;;-5.37;100.00;102922.06;4940628;28;20073;-81
2023/02/09 00:08:28;;;;;;;30.97;12.77;;;;;;;-5.43;100.00;102922.47;4942743;28;20047;-81
2023/02/09 00:10:58;;;;;;;28.83;14.40;;;;;;;-5.47;100.00;102916.94;4957117;28;20090;-81
2023/02/09 00:13:25;;;;;;;28.87;13.23;;;;;;;-5.50;100.00;102909.88;4942347;28;20039;-80
2023/02/09 00:15:54;;;;;;;24.93;12.33;;;;;;;-5.54;100.00;102927.56;4925636;28;20046;-81
2023/02/09 00:18:21;;;;;;;25.07;12.43;;;;;;;-5.60;100.00;102920.22;4942407;28;20054;-80
2023/02/09 00:20:59;;;;;;;27.53;11.93;;;;;;;-5.55;100.00;102921.50;4956165;28;20499;-81
2023/02/09 00:23:28;;;;;;;28.43;13.10;;;;;;;-5.51;100.00;102909.75;4955518;28;20039;-80
2023/02/09 00:25:58;;;;;;;26.63;13.00;;;;;;;-5.37;100.00;102906.63;4957078;28;20039;-80
2023/02/09 00:28:25;;;;;;;29.33;13.93;;;;;;;-5.57;100.00;102904.09;4932507;28;20074;-81
2023/02/09 00:30:52;;;;;;;25.80;12.67;;;;;;;-5.57;100.00;102897.28;4925144;29;20054;-81
2023/02/09 00:33:21;;;;;;;24.67;12.47;;;;;;;-5.67;100.00;102895.66;4937599;28;20075;-80
2023/02/09 00:35:48;;;;;;;25.17;11.37;;;;;;;-5.81;100.00;102896.19;4939848;28;20035;-82
2023/02/09 00:38:18;;;;;;;23.70;12.30;;;;;;;-5.84;100.00;102892.50;4956963;28;20051;-80
2023/02/09 00:40:46;;;;;;;27.90;12.60;;;;;;;-5.82;100.00;102894.41;4958213;28;20043;-81
2023/02/09 00:43:13;;;;;;;25.97;12.67;;;;;;;-5.76;100.00;102878.56;4977762;28;20070;-81
2023/02/09 00:45:40;;;;;;;29.20;14.23;;;;;;;-5.77;100.00;102887.97;4945683;28;20043;-80
2023/02/09 00:48:07;;;;;;;25.00;13.40;;;;;;;-5.93;100.00;102889.19;4964411;28;20129;-81
2023/02/09 00:50:35;;;;;;;25.50;11.97;;;;;;;-5.85;100.00;102883.88;4941458;28;20468;-81
2023/02/09 00:53:04;;;;;;;22.43;11.77;;;;;;;-5.82;100.00;102876.38;4941583;28;20042;-80
2023/02/09 00:55:31;;;;;;;28.53;13.77;;;;;;;-5.87;100.00;102881.94;4964015;28;20038;-80
2023/02/09 00:57:57;;;;;;;25.73;12.30;;;;;;;-5.93;100.00;102877.22;4961380;28;20479;-81
2023/02/09 01:00:25;;;;;;;20.93;11.13;;;;;;;-5.86;100.00;102879.50;4979516;28;20432;-80
2023/02/09 01:02:51;;;;;;;28.50;13.40;;;;;;;-5.82;100.00;102878.06;4967525;28;20031;-80
2023/02/09 01:05:23;;;;;;;27.10;11.30;;;;;;;-5.87;100.00;102882.84;4965694;28;20045;-81
2023/02/09 01:07:50;;;;;;;25.93;12.60;;;;;;;-5.91;100.00;102879.91;4934726;28;20303;-80
2023/02/09 01:10:17;;;;;;;23.83;12.07;;;;;;;-5.86;100.00;102876.03;4943762;28;20314;-81
2023/02/09 01:12:43;;;;;;;29.13;13.83;;;;;;;-5.85;100.00;102878.72;4975576;28;20039;-81
2023/02/09 01:15:11;;;;;;;28.37;12.80;;;;;;;-5.82;100.00;102873.81;4929171;28;20133;-80
2023/02/09 01:17:38;;;;;;;22.57;11.93;;;;;;;-5.92;100.00;102868.72;4944724;28;20035;-81
2023/02/09 01:20:07;;;;;;;28.13;12.47;;;;;;;-5.96;100.00;102861.56;4945523;28;20056;-81
2023/02/09 01:22:37;;;;;;;26.17;10.90;;;;;;;-5.84;100.00;102851.31;4945148;28;20408;-81
2023/02/09 01:25:05;;;;;;;25.77;12.60;;;;;;;-5.78;100.00;102854.38;4930918;28;20049;-80
2023/02/09 01:27:32;;;;;;;25.43;10.93;;;;;;;-5.83;100.00;102856.56;4941936;28;20062;-82
2023/02/09 01:29:59;;;;;;;24.30;12.37;;;;;;;-5.79;100.00;102856.06;4961712;28;20106;-81
2023/02/09 01:32:26;;;;;;;26.07;11.97;;;;;;;-5.83;100.00;102847.94;4928781;28;20050;-82
2023/02/09 01:34:53;;;;;;;24.93;11.93;;;;;;;-5.80;100.00;102843.03;4945167;28;20047;-81
2023/02/09 01:37:20;;;;;;;23.73;11.40;;;;;;;-5.90;100.00;102837.97;5029623;23;20067;-79
2023/02/09 01:39:47;;;;;;;27.30;11.77;;;;;;;-5.84;100.00;102830.72;4952923;28;20133;-77
2023/02/09 01:42:15;;;;;;;24.23;11.50;;;;;;;-5.83;100.00;102835.97;4945040;28;20553;-81
2023/02/09 01:44:41;;;;;;;19.03;10.60;;;;;;;-5.84;100.00;102829.03;4992225;28;20050;-81
2023/02/09 01:47:16;;;;;;;22.60;11.63;;;;;;;-5.80;100.00;102825.94;4962784;28;20050;-79
2023/02/09 01:49:45;;;;;;;27.07;13.03;;;;;;;-5.73;100.00;102822.16;4944473;28;20043;-79
2023/02/09 01:52:17;;;;;;;30.37;13.77;;;;;;;-5.76;100.00;102825.41;4965363;28;20098;-80
2023/02/09 01:54:50;;;;;;;25.83;11.53;;;;;;;-5.77;100.00;102821.03;4977069;28;20031;-81
2023/02/09 01:57:24;;;;;;;23.95;10.98;;;;;;;-5.84;100.00;102817.84;4967454;28;20054;-81
2023/02/09 01:59:57;;;;;;;26.67;11.80;;;;;;;-5.83;100.00;102812.81;4951314;28;20042;-79
2023/02/09 02:02:24;;;;;;;23.40;11.97;;;;;;;-5.86;100.00;102815.16;4978575;28;20049;-79
2023/02/09 02:04:51;;;;;;;22.33;10.70;;;;;;;-5.93;100.00;102807.75;4976722;28;20301;-80
2023/02/09 02:07:27;;;;;;;25.57;10.87;;;;;;;-6.04;100.00;102801.75;4980591;28;20041;-80
2023/02/09 02:09:54;;;;;;;25.43;11.40;;;;;;;-6.04;100.00;102803.41;4955580;28;20380;-80
2023/02/09 02:12:21;;;;;;;23.80;11.40;;;;;;;-6.11;100.00;102802.03;4974731;28;20069;-80
2023/02/09 02:14:48;;;;;;;18.43;10.10;;;;;;;-6.02;100.00;102799.28;4962369;28;20054;-79
2023/02/09 02:17:40;;;;;;;24.23;11.10;;;;;;;-6.02;100.00;102799.28;4963143;28;20509;-80
2023/02/09 02:20:26;;;;;;;24.07;11.50;;;;;;;-6.00;100.00;102792.59;4968236;28;20045;-81
2023/02/09 02:23:14;;;;;;;26.67;11.70;;;;;;;-6.06;100.00;102784.34;4982340;28;20039;-81
2023/02/09 02:26:08;;;;;;;22.30;10.97;;;;;;;-6.07;100.00;102775.75;4941438;28;20042;-80
2023/02/09 02:28:51;;;;;;;25.50;10.70;;;;;;;-6.12;100.00;102771.03;4957540;28;20640;-81
2023/02/09 02:31:36;;;;;;;23.00;10.60;;;;;;;-6.02;100.00;102778.69;4951428;28;20046;-81
2023/02/09 02:34:17;;;;;;;22.23;10.27;;;;;;;-6.01;100.00;102762.47;4972631;28;20321;-79
2023/02/09 02:36:57;;;;;;;20.23;10.73;;;;;;;-6.03;100.00;102769.19;4954007;28;20129;-80
2023/02/09 02:39:40;;;;;;;21.03;10.70;;;;;;;-6.04;100.00;102763.16;4967560;28;20042;-80
2023/02/09 02:45:04;;;;;;;23.13;10.43;;;;;;;-6.20;100.00;102759.22;4973652;28;20558;-80
2023/02/09 02:47:33;;;;;;;25.13;10.67;;;;;;;-6.22;100.00;102758.16;4941443;28;20294;-80
2023/02/09 02:50:06;;;;;;;24.07;11.73;;;;;;;-6.18;100.00;102752.50;4936016;28;20301;-80
2023/02/09 02:52:33;;;;;;;21.38;9.73;;;;;;;-6.17;100.00;102749.16;4954444;28;20043;-80
2023/02/09 02:55:05;;;;;;;18.83;9.23;;;;;;;-6.22;100.00;102745.31;4943411;28;20065;-80
2023/02/09 02:57:32;;;;;;;19.00;10.13;;;;;;;-6.18;100.00;102747.38;4957704;28;20038;-81
2023/02/09 03:00:02;;;;;;;24.43;10.87;;;;;;;-6.20;100.00;102738.63;4952978;28;20294;-80
2023/02/09 03:02:33;;;;;;;18.20;10.30;;;;;;;-6.18;100.00;102737.06;4940873;28;20297;-80
2023/02/09 03:05:00;;;;;;;20.03;9.63;;;;;;;-6.22;100.00;102728.22;4940749;28;20051;-80
2023/02/09 03:07:27;;;;;;;19.77;9.73;;;;;;;-6.28;100.00;102733.78;4938850;28;20452;-80
2023/02/09 03:09:55;;;;;;;21.80;10.20;;;;;;;-6.27;100.00;102729.53;4945940;28;20302;-80
2023/02/09 03:12:59;;;;;;;22.17;10.90;;;;;;;-6.29;100.00;102724.25;4964844;28;20035;-80
2023/02/09 03:15:57;;;;;;;21.33;9.93;;;;;;;-6.15;100.00;102720.19;4959602;28;20302;-81
2023/02/09 03:18:32;;;;;;;21.30;9.53;;;;;;;-6.22;100.00;102720.50;4974058;28;20376;-80
2023/02/09 03:21:11;;;;;;;24.50;10.50;;;;;;;-6.18;100.00;102717.41;4966095;28;20294;-80
2023/02/09 03:23:46;;;;;;;27.23;10.37;;;;;;;-6.21;100.00;102712.03;4970778;28;20302;-80
2023/02/09 03:26:18;;;;;;;20.97;9.80;;;;;;;-6.17;100.00;102713.16;4957529;28;20281;-80
2023/02/09 03:28:47;;;;;;;24.23;9.37;;;;;;;-6.22;100.00;102704.16;4957174;28;20305;-80
2023/02/09 03:31:14;;;;;;;22.80;10.97;;;;;;;-6.20;100.00;102712.91;4957520;28;20933;-80
2023/02/09 03:33:41;;;;;;;22.33;9.97;;;;;;;-6.07;100.00;102703.69;4935479;28;20479;-80
2023/02/09 03:36:14;;;;;;;20.07;9.90;;;;;;;-6.22;100.00;102701.56;4957245;28;20294;-80
2023/02/09 03:38:41;;;;;;;24.03;10.80;;;;;;;-6.24;100.00;102698.88;4956826;28;20061;-80
2023/02/09 03:41:07;;;;;;;21.97;10.03;;;;;;;-6.29;100.00;102693.41;4938612;28;20357;-79
2023/02/09 03:46:20;;;;;;;21.53;10.47;;;;;;;-6.26;100.00;102692.72;4958476;28;20806;-79
2023/02/09 03:48:48;;;;;;;23.90;9.80;;;;;;;-6.22;100.00;102689.66;4961916;28;20857;-79
2023/02/09 03:51:15;;;;;;;19.47;10.03;;;;;;;-6.29;100.00;102690.81;4928947;28;20700;-79
2023/02/09 03:53:42;;;;;;;24.90;10.30;;;;;;;-6.22;100.00;102694.78;4978519;28;20289;-79
2023/02/09 03:56:09;;;;;;;23.33;10.87;;;;;;;-6.35;100.00;102695.47;4970591;28;20426;-80
2023/02/09 03:58:36;;;;;;;19.40;10.07;;;;;;;-6.41;100.00;102688.94;4956273;28;20673;-79
2023/02/09 04:01:04;;;;;;;22.50;9.80;;;;;;;-6.32;100.00;102687.09;4952919;28;20298;-79
2023/02/09 04:03:31;;;;;;;17.50;9.13;;;;;;;-6.48;100.00;102676.34;4969255;28;20293;-80
2023/02/09 04:06:00;;;;;;;22.03;10.37;;;;;;;-6.40;100.00;102672.72;4969295;28;20305;-79
2023/02/09 04:08:28;;;;;;;18.33;9.03;;;;;;;-6.47;100.00;102679.06;4957564;28;20299;-79
2023/02/09 04:10:56;;;;;;;19.80;9.90;;;;;;;-6.44;100.00;102683.56;4951633;28;20101;-79
2023/02/09 04:13:24;;;;;;;17.87;8.70;;;;;;;-6.60;100.00;102671.13;4962577;28;20823;-79
2023/02/09 04:15:51;;;;;;;20.23;9.27;;;;;;;-6.64;100.00;102669.06;4959718;28;20289;-79
2023/02/09 04:18:18;;;;;;;22.23;10.00;;;;;;;-6.62;100.00;102671.03;4986379;28;20347;-79
2023/02/09 04:20:44;;;;;;;21.03;9.63;;;;;;;-6.58;100.00;102665.34;4960180;28;20316;-79
2023/02/09 04:23:12;;;;;;;20.17;8.70;;;;;;;-6.54;100.00;102658.78;4948696;28;20291;-79
2023/02/09 04:25:38;;;;;;;20.10;9.83;;;;;;;-6.51;100.00;102648.72;4944299;28;20300;-78
2023/02/09 04:28:05;;;;;;;19.30;9.67;;;;;;;-6.53;100.00;102645.16;4940392;28;20302;-79
2023/02/09 04:30:31;;;;;;;18.40;9.27;;;;;;;-6.62;100.00;102644.41;4952112;28;20042;-79
2023/02/09 04:32:58;;;;;;;19.33;9.00;;;;;;;-6.69;100.00;102647.25;4945726;28;20038;-79
2023/02/09 04:35:25;;;;;;;20.40;9.50;;;;;;;-6.73;100.00;102645.19;4953932;28;20308;-79
2023/02/09 04:37:51;;;;;;;18.00;9.43;;;;;;;-6.71;100.00;102643.69;4959385;28;20324;-79
2023/02/09 04:40:18;;;;;;;21.27;10.03;;;;;;;-6.79;100.00;102632.78;4958837;28;20341;-79
2023/02/09 04:42:45;;;;;;;17.60;9.03;;;;;;;-6.83;100.00;102634.19;4956248;28;20329;-79
2023/02/09 04:45:12;;;;;;;22.63;9.13;;;;;;;-6.83;100.00;102629.03;4946271;28;20305;-80
2023/02/09 04:47:38;;;;;;;20.33;10.63;;;;;;;-6.70;100.00;102622.34;4937601;28;20298;-79
2023/02/09 04:50:05;;;;;;;17.63;9.23;;;;;;;-6.76;100.00;102629.53;4960859;28;20294;-79
2023/02/09 04:52:32;;;;;;;22.00;9.67;;;;;;;-6.81;100.00;102635.22;4960990;28;20293;-79
2023/02/09 04:54:59;;;;;;;21.43;10.80;;;;;;;-6.89;100.00;102637.94;4944173;28;20332;-79
2023/02/09 05:00:12;;;;;;;17.93;8.47;;;;;;;-6.87;100.00;102641.53;4959752;28;20340;-79
2023/02/09 05:02:38;;;;;;;21.87;10.00;;;;;;;-6.94;100.00;102629.84;4974676;28;20738;-80
2023/02/09 05:05:05;;;;;;;22.63;8.90;;;;;;;-7.01;100.00;102632.69;4951555;28;20317;-79
2023/02/09 05:07:32;;;;;;;19.60;9.30;;;;;;;-7.04;100.00;102624.75;4951730;28;20300;-79
2023/02/09 05:09:58;;;;;;;18.03;9.27;;;;;;;-7.09;100.00;102626.94;4975662;28;20745;-80
2023/02/09 05:12:25;;;;;;;17.87;9.33;;;;;;;-7.05;100.00;102632.34;4947891;28;20294;-80
2023/02/09 05:14:52;;;;;;;21.90;9.13;;;;;;;-7.09;100.00;102623.47;4958816;28;20303;-79
2023/02/09 05:17:19;;;;;;;15.73;9.07;;;;;;;-7.07;100.00;102624.47;4961786;28;20293;-79
2023/02/09 05:19:47;;;;;;;19.20;8.80;;;;;;;-7.07;100.00;102627.06;4953637;28;20388;-79
2023/02/09 05:22:13;;;;;;;18.90;9.00;;;;;;;-7.17;100.00;102620.25;4962984;28;20292;-80
2023/02/09 05:24:40;;;;;;;17.73;9.13;;;;;;;-7.04;100.00;102622.19;4960662;28;20824;-79
2023/02/09 05:27:07;;;;;;;17.73;8.53;;;;;;;-6.97;100.00;102621.91;4941293;28;20783;-79
2023/02/09 05:29:33;;;;;;;20.30;9.27;;;;;;;-7.15;100.00;102612.69;4958580;28;20293;-80
2023/02/09 05:32:00;;;;;;;20.57;9.93;;;;;;;-7.08;100.00;102617.56;4960601;28;20285;-79
2023/02/09 05:34:27;;;;;;;17.93;8.23;;;;;;;-7.14;100.00;102619.66;4944282;28;20293;-79
2023/02/09 05:36:53;;;;;;;20.87;9.57;;;;;;;-7.08;100.00;102622.69;4959962;28;20300;-79
2023/02/09 05:39:20;;;;;;;17.77;8.47;;;;;;;-7.19;100.00;102629.53;4943312;28;20293;-79
2023/02/09 05:44:32;;;;;;;18.57;9.13;;;;;;;-7.22;100.00;102623.25;4963813;28;21066;-80
2023/02/09 05:46:58;;;;;;;19.93;9.50;;;;;;;-7.24;100.00;102617.97;4969800;28;20292;-79
2023/02/09 05:49:25;;;;;;;16.53;8.70;;;;;;;-7.23;100.00;102604.38;4945991;28;20293;-79
2023/02/09 05:51:52;;;;;;;17.40;9.33;;;;;;;-7.25;100.00;102610.13;4956675;28;20313;-80
2023/02/09 05:54:18;;;;;;;19.00;9.27;;;;;;;-7.26;100.00;102604.09;4959473;28;20880;-79
2023/02/09 05:56:45;;;;;;;18.13;9.57;;;;;;;-7.24;100.00;102612.81;4957917;28;20301;-79
2023/02/09 05:59:12;;;;;;;12.60;7.33;;;;;;;-7.25;100.00;102621.31;4955202;28;20722;-79
2023/02/09 06:01:39;;;;;;;16.43;8.20;;;;;;;-7.27;100.00;102616.81;4973126;28;20301;-79
2023/02/09 06:04:05;;;;;;;19.90;8.63;;;;;;;-7.27;100.00;102620.28;4957877;28;20829;-79
2023/02/09 06:06:32;;;;;;;17.53;8.80;;;;;;;-7.29;100.00;102620.94;4957911;28;20932;-79
2023/02/09 06:08:59;;;;;;;21.00;8.33;;;;;;;-7.34;100.00;102615.41;4954531;28;20297;-79
2023/02/09 06:11:26;;;;;;;16.53;8.80;;;;;;;-7.34;100.00;102630.81;4944689;28;20301;-79
2023/02/09 06:13:52;;;;;;;17.43;9.07;;;;;;;-7.41;100.00;102624.28;4939953;28;20282;-80
2023/02/09 06:16:19;;;;;;;17.20;8.40;;;;;;;-7.41;100.00;102624.28;4955132;28;20316;-79
2023/02/09 06:18:45;;;;;;;18.77;9.33;;;;;;;-7.42;100.00;102619.00;4976201;28;20301;-79
2023/02/09 06:21:12;;;;;;;17.67;9.67;;;;;;;-7.38;100.00;102619.41;4970741;28;20343;-79
2023/02/09 06:23:39;;;;;;;21.07;8.83;;;;;;;-7.45;100.00;102609.41;4969539;28;20293;-80
2023/02/09 06:26:10;;;;;;;18.63;8.83;;;;;;;-7.38;100.00;102613.38;4973692;28;20818;-78
2023/02/09 06:28:37;;;;;;;17.40;8.57;;;;;;;-7.09;100.00;102610.63;4938526;28;21095;-80
2023/02/09 06:31:04;;;;;;;21.10;9.27;;;;;;;-7.09;100.00;102614.09;4974057;28;20731;-78
2023/02/09 06:33:33;;;;;;;20.20;9.17;;;;;;;-7.26;100.00;102616.94;4967791;28;20665;-79
2023/02/09 06:36:00;;;;;;;21.20;9.20;;;;;;;-7.24;100.00;102617.97;4962698;28;20308;-79
2023/02/09 06:38:29;;;;;;;18.13;8.67;;;;;;;-7.29;100.00;102609.00;4948772;28;20359;-80
2023/02/09 06:40:56;;;;;;;17.70;8.57;;;;;;;-7.30;100.00;102614.91;4959974;28;20289;-79
2023/02/09 06:43:23;;;;;;;18.90;8.93;;;;;;;-7.31;100.00;102604.50;4943976;28;20297;-80
2023/02/09 06:45:49;;;;;;;21.07;9.40;;;;;;;-7.25;100.00;102605.91;4958867;28;20312;-80
2023/02/09 06:48:16;;;;;;;18.57;9.37;;;;;;;-7.30;100.00;102624.28;4956531;28;20333;-79
2023/02/09 06:50:43;;;;;;;20.93;8.87;;;;;;;-7.28;100.00;102623.63;4933884;28;20295;-80
2023/02/09 06:53:11;;;;;;;21.97;9.07;;;;;;;-7.26;100.00;102626.31;4940168;28;20720;-80
2023/02/09 06:55:37;;;;;;;23.03;9.23;;;;;;;-7.20;100.00;102626.84;4983356;28;20300;-80
2023/02/09 06:58:04;;;;;;;20.53;9.20;;;;;;;-7.24;100.00;102614.50;4963824;28;20300;-79
2023/02/09 07:00:31;;;;;;;21.10;10.73;;;;;;;-7.23;100.00;102613.72;4978236;28;20359;-80
2023/02/09 07:02:58;;;;;;;17.53;8.53;;;;;;;-7.19;100.00;102619.25;4964886;28;20307;-79
2023/02/09 07:05:25;;;;;;;20.60;9.17;;;;;;;-7.14;100.00;102615.41;4958200;28;20325;-78
2023/02/09 07:07:51;;;;;;;19.40;9.70;;;;;;;-7.10;100.00;102620.00;4974686;28;20786;-78
2023/02/09 07:10:18;;;;;;;23.90;10.27;;;;;;;-7.01;100.00;102626.66;4957599;28;20328;-78
2023/02/09 07:12:45;;;;;;;19.47;9.43;;;;;;;-6.92;100.00;102628.31;4958239;28;20282;-78
2023/02/09 07:15:12;;;;;;;19.00;9.03;;;;;;;-6.80;100.00;102625.84;4966872;28;20725;-79
2023/02/09 07:17:39;;;;;;;21.27;11.10;;;;;;;-6.72;100.00;102624.78;4951129;28;20324;-79
2023/02/09 07:20:07;;;;;;;22.17;10.43;;;;;;;-6.68;100.00;102624.25;4942474;28;20620;-79
2023/02/09 07:22:34;;;;;;;20.20;9.40;;;;;;;-6.69;100.00;102627.59;4974847;28;20290;-79
2023/02/09 07:25:01;;;;;;;24.23;10.77;;;;;;;-6.54;100.00;102625.38;4938916;28;20330;-79
2023/02/09 07:27:27;;;;;;;19.93;10.03;;;;;;;-6.46;100.00;102625.97;4938960;28;20289;-79
2023/02/09 07:29:54;;;;;;;23.40;10.43;;;;;;;-6.33;100.00;102624.47;4938965;28;20289;-79
2023/02/09 07:32:24;;;;;;;23.67;10.33;;;;;;;-6.29;100.00;102625.63;4954319;28;20286;-79
2023/02/09 07:34:50;;;;;;;23.33;10.43;;;;;;;-6.25;100.00;102622.50;4992975;28;20642;-79
2023/02/09 07:37:17;;;;;;;24.10;11.73;;;;;;;-6.18;100.00;102623.88;4961756;28;20352;-78
2023/02/09 08:44:09;;;;;;;19.83;8.53;;;;;;;-3.24;94.96;102572.06;5039075;28;20110;-82
2023/02/09 08:46:36;;;;;;;20.03;9.97;;;;;;;-3.18;92.78;102562.13;5008489;28;20123;-82
2023/02/09 08:49:03;;;;;;;22.00;11.07;;;;;;;-3.10;94.57;102565.22;5007823;28;20064;-81
2023/02/09 08:51:30;;;;;;;21.83;10.37;;;;;;;-2.94;92.76;102553.38;5002233;28;20124;-80
2023/02/09 08:53:56;;;;;;;21.20;10.57;;;;;;;-2.83;91.60;102552.38;5030576;28;20041;-81
2023/02/09 08:56:23;;;;;;;20.43;9.77;;;;;;;-2.68;90.49;102548.97;4987904;28;20045;-81
2023/02/09 08:58:50;;;;;;;21.77;10.70;;;;;;;-2.58;88.59;102552.25;5009954;28;20494;-82
2023/02/09 09:01:16;;;;;;;17.90;9.70;;;;;;;-2.42;87.96;102543.75;5020735;28;20413;-81
2023/02/09 09:03:43;;;;;;;21.23;10.03;;;;;;;-2.45;89.89;102545.22;5002574;28;20049;-81
2023/02/09 09:06:11;;;;;;;17.70;9.93;;;;;;;-2.22;84.73;102542.38;5002228;28;20042;-81
2023/02/09 09:08:38;;;;;;;21.67;9.37;;;;;;;-2.04;83.73;102542.59;5018579;28;20049;-81
2023/02/09 09:11:06;;;;;;;19.23;10.57;;;;;;;-1.92;82.09;102533.00;4999164;28;20042;-82
2023/02/09 09:13:32;;;;;;;20.40;9.93;;;;;;;-1.89;81.82;102537.44;4983461;28;20406;-83
2023/02/09 09:15:59;;;;;;;21.40;10.30;;;;;;;-1.80;81.44;102523.34;5036357;28;20145;-80
2023/02/09 09:18:26;;;;;;;19.67;9.53;;;;;;;-1.69;82.16;102516.19;5018409;28;20034;-81
2023/02/09 09:20:54;;;;;;;19.00;9.33;;;;;;;-1.55;82.68;102509.25;5033511;28;20410;-81
2023/02/09 09:23:21;;;;;;;19.10;9.27;;;;;;;-1.51;82.92;102511.22;5002024;28;20592;-80
2023/02/09 09:25:51;;;;;;;16.20;9.27;;;;;;;-1.49;83.16;102510.50;4989406;28;20055;-81
2023/02/09 09:28:18;;;;;;;18.40;9.43;;;;;;;-1.27;79.89;102501.34;5018005;28;20045;-81
2023/02/09 09:30:44;;;;;;;16.80;9.73;;;;;;;-1.09;76.96;102493.69;4998570;28;20120;-81
2023/02/09 09:33:11;;;;;;;17.67;9.13;;;;;;;-0.98;77.91;102493.50;4982630;28;20042;-81
2023/02/09 09:35:38;;;;;;;20.43;10.07;;;;;;;-0.97;76.95;102484.91;5055964;23;21087;-81
2023/02/09 09:38:05;;;;;;;20.00;9.93;;;;;;;-0.84;76.41;102499.47;5018482;28;20465;-82
2023/02/09 09:40:34;;;;;;;16.87;9.20;;;;;;;-0.75;75.03;102494.78;5018199;28;20071;-82
2023/02/09 09:43:06;;;;;;;16.30;10.07;;;;;;;-0.71;74.51;102494.13;5002621;28;20041;-82
2023/02/09 09:45:36;;;;;;;15.77;8.27;;;;;;;-0.59;72.21;102497.41;5021175;28;20124;-82
2023/02/09 09:48:03;;;;;;;20.43;9.40;;;;;;;-0.52;74.57;102505.50;5023186;28;20076;-82
2023/02/09 09:50:38;;;;;;;23.33;10.27;;;;;;;-0.35;70.92;102507.31;5023288;28;20048;-81
2023/02/09 09:53:27;;;;;;;15.97;8.13;;;;;;;-0.19;69.08;102496.91;5020913;28;20041;-82
2023/02/09 09:55:55;;;;;;;16.93;8.77;;;;;;;-0.16;68.81;102499.69;5005605;28;20037;-81
2023/02/09 09:58:22;;;;;;;19.47;8.90;;;;;;;-0.18;71.77;102495.22;5023779;28;20041;-81
2023/02/09 10:00:49;;;;;;;16.33;8.70;;;;;;;-0.05;71.72;102501.13;5023584;28;20564;-81
2023/02/09 10:03:18;;;;;;;12.13;7.07;;;;;;;0.12;67.02;102488.13;5023960;28;20037;-81
2023/02/09 10:05:59;;;;;;;13.40;7.23;;;;;;;0.23;65.06;102499.94;5003730;28;20386;-81
2023/02/09 10:09:01;;;;;;;15.60;8.07;;;;;;;0.27;67.01;102496.69;5022024;28;20052;-81
2023/02/09 10:11:32;;;;;;;15.07;7.60;;;;;;;0.43;66.71;102495.78;4973760;28;20043;-83
2023/02/09 10:13:59;;;;;;;14.57;7.67;;;;;;;0.45;61.67;102487.22;5004522;28;20056;-82
2023/02/09 10:16:29;;;;;;;12.60;7.07;;;;;;;0.50;63.67;102493.53;4993472;28;20435;-82
2023/02/09 10:19:01;;;;;;;16.37;8.03;;;;;;;0.56;66.55;102480.84;5005186;28;20045;-81
2023/02/09 10:21:33;;;;;;;15.00;7.60;;;;;;;0.67;65.86;102465.75;5022240;28;20500;-82
2023/02/09 10:23:59;;;;;;;12.77;6.53;;;;;;;0.90;62.38;102468.56;5011955;28;20041;-81
2023/02/09 10:26:32;;;;;;;16.00;7.57;;;;;;;0.93;61.24;102463.53;5023775;28;20051;-82
2023/02/09 10:29:17;;;;;;;13.90;7.23;;;;;;;0.97;62.00;102457.63;4997843;28;20044;-81
2023/02/09 10:31:46;;;;;;;13.43;7.33;;;;;;;1.04;64.16;102452.81;5011579;28;20033;-82
2023/02/09 10:34:19;;;;;;;15.60;7.40;;;;;;;1.13;64.79;102442.81;5000343;28;20470;-81
2023/02/09 10:36:53;;;;;;;14.30;7.17;;;;;;;1.33;59.42;102443.72;5016267;28;20037;-80
2023/02/09 10:39:23;;;;;;;14.48;8.00;;;;;;;1.47;58.14;102446.97;4998924;28;20041;-82
2023/02/09 10:41:51;;;;;;;14.43;7.27;;;;;;;1.52;61.01;102450.66;5014385;28;20047;-81
2023/02/09 10:44:24;;;;;;;13.13;7.60;;;;;;;1.75;59.94;102454.28;5019032;28;20045;-80
2023/02/09 10:47:17;;;;;;;18.53;7.57;;;;;;;1.89;57.43;102439.25;5010263;28;20053;-80
2023/02/09 10:49:54;;;;;;;13.23;7.60;;;;;;;1.85;57.56;102452.97;5047669;28;20048;-82
2023/02/09 10:52:23;;;;;;;12.13;6.73;;;;;;;1.99;57.16;102457.06;5029738;28;20522;-81
2023/02/09 10:54:56;;;;;;;15.00;8.23;;;;;;;2.19;56.40;102444.91;4997431;28;20037;-81
2023/02/09 10:57:35;;;;;;;14.53;7.97;;;;;;;2.36;55.80;102446.50;5028986;28;20055;-81
2023/02/09 11:00:28;;;;;;;14.90;8.77;;;;;;;2.56;56.11;102435.97;5010441;28;20037;-80
2023/02/09 11:03:00;;;;;;;13.97;7.33;;;;;;;2.69;56.22;102436.53;4997133;28;20045;-80
2023/02/09 11:05:30;;;;;;;12.43;6.77;;;;;;;2.51;53.61;102438.38;5029624;28;20033;-81
2023/02/09 11:08:20;;;;;;;14.13;8.03;;;;;;;2.49;53.91;102445.25;5016032;28;20098;-82
2023/02/09 11:10:55;;;;;;;13.63;7.27;;;;;;;2.68;54.19;102445.16;5023255;28;20040;-80
2023/02/09 11:13:24;;;;;;;14.83;8.00;;;;;;;2.79;53.52;102446.50;5024129;28;20045;-81
2023/02/09 11:16:32;;;;;;;13.83;7.87;;;;;;;2.92;52.76;102429.59;5015368;28;20042;-80
2023/02/09 11:19:21;;;;;;;11.90;7.17;;;;;;;3.05;53.28;102433.59;5025585;28;20469;-81
2023/02/09 11:22:01;;;;;;;15.60;8.43;;;;;;;3.16;52.45;102426.16;5029120;28;20129;-81
2023/02/09 11:24:59;;;;;;;14.30;8.10;;;;;;;3.26;52.86;102412.59;5005072;28;20045;-80
2023/02/09 11:27:52;;;;;;;14.50;7.57;;;;;;;3.35;52.45;102406.00;5014160;28;20041;-81
2023/02/09 11:30:46;;;;;;;15.13;7.50;;;;;;;3.39;53.29;102405.28;4991023;28;20061;-81
2023/02/09 11:33:37;;;;;;;14.68;7.03;;;;;;;3.67;51.87;102403.66;4981582;28;20069;-80
2023/02/09 11:36:32;;;;;;;13.27;7.03;;;;;;;3.79;51.39;102396.28;4997954;28;20069;-80
2023/02/09 11:39:19;;;;;;;13.93;7.05;;;;;;;3.65;50.66;102400.13;5040691;28;20091;-82
2023/02/09 11:44:53;;;;;;;11.70;7.67;;;;;;;3.47;51.03;102394.22;5015945;28;20429;-79
2023/02/09 11:47:31;;;;;;;12.97;7.97;;;;;;;3.43;50.95;102395.81;5020210;28;20048;-78
2023/02/09 11:50:01;;;;;;;13.77;9.40;;;;;;;3.51;51.30;102393.50;5013544;28;20468;-80
2023/02/09 11:52:36;;;;;;;13.50;8.63;;;;;;;3.55;50.41;102392.78;5033182;28;20310;-79
2023/02/09 11:55:17;;;;;;;12.90;7.97;;;;;;;3.49;50.89;102392.56;5017371;28;20041;-80
2023/02/09 11:57:48;;;;;;;13.67;8.43;;;;;;;3.39;50.10;102393.94;5014862;28;20517;-80
2023/02/09 12:00:19;;;;;;;12.20;6.97;;;;;;;3.26;50.25;102390.00;5001785;28;20562;-80
2023/02/09 12:02:52;;;;;;;11.87;7.87;;;;;;;3.23;50.64;102387.28;5029375;28;20033;-81
2023/02/09 12:05:20;;;;;;;11.87;6.93;;;;;;;3.09;50.32;102383.25;5035846;28;20040;-80
2023/02/09 12:07:52;;;;;;;14.07;7.67;;;;;;;3.00;50.21;102380.28;5028084;28;20032;-80
2023/02/09 12:10:27;;;;;;;14.50;7.83;;;;;;;3.17;51.46;102367.88;5009784;28;20037;-80
2023/02/09 12:13:01;;;;;;;12.93;8.03;;;;;;;3.17;50.43;102363.53;5009228;28;20132;-80
2023/02/09 12:15:37;;;;;;;13.83;7.23;;;;;;;3.04;51.15;102374.38;5054342;28;20129;-79
2023/02/09 12:18:12;;;;;;;14.00;7.20;;;;;;;3.13;50.65;102363.38;5022221;28;20037;-79
2023/02/09 12:20:38;;;;;;;11.80;7.50;;;;;;;3.23;51.22;102368.09;5037001;28;20071;-80
2023/02/09 12:23:31;;;;;;;11.67;6.83;;;;;;;3.12;49.30;102359.88;5012667;28;20050;-80
2023/02/09 12:26:20;;;;;;;12.83;6.53;;;;;;;3.24;51.77;102365.53;5019170;28;20041;-77
2023/02/09 12:29:02;;;;;;;13.77;6.43;;;;;;;3.29;50.10;102369.22;5050313;28;20038;-79
2023/02/09 12:31:30;;;;;;;11.57;6.63;;;;;;;3.26;50.39;102376.03;5022315;28;20113;-79
2023/02/09 12:33:56;;;;;;;15.03;7.10;;;;;;;3.19;49.78;102374.91;5001681;28;20052;-80
2023/02/09 12:36:32;;;;;;;12.47;6.70;;;;;;;3.02;50.10;102389.94;5030044;28;20036;-80
2023/02/09 12:39:31;;;;;;;12.87;7.13;;;;;;;2.87;51.40;102389.41;5022319;28;20055;-80
2023/02/09 12:42:01;;;;;;;12.50;6.43;;;;;;;2.86;51.84;102384.09;4968441;28;20076;-80
2023/02/09 12:44:27;;;;;;;12.93;7.67;;;;;;;2.92;51.87;102381.72;5032608;28;20040;-81
2023/02/09 12:46:56;;;;;;;12.20;6.93;;;;;;;2.83;51.80;102398.81;5040796;28;20041;-80